NCAR-RAP Real-Time Weather Data

Output produced by METARs form (27 July 2017  18:46 UTC)
found at http://weather.rap.ucar.edu/surface/
 
Conditions at: KTPA observed 27 July 2017  17:53 UTC
Temperature: 32.8°C (91°F)
Dewpoint: 25.0°C (77°F) [RH = 64%]
Pressure (altimeter): 30.02 inches Hg (1016.7 mb)
[Sea-level pressure: 1016.3 mb]
Winds: from the SW (230 degrees) at 6 MPH (5 knots; 2.6 m/s)
Visibility: 10 or more miles (16+ km)
Ceiling: 25000 feet AGL
Clouds: scattered clouds at 3000 feet AGL
broken clouds at 25000 feet AGL
Present Weather: no significant weather observed at this time
KTPA 271753Z 23005KT 10SM SCT030TCU BKN250 33/25 A3002 RMK AO2 LTG DSNT E AND SE SLP163 TCU NE-SE T03280250 10328 20289 58010

Conditions at: KTPA observed 27 July 2017  16:53 UTC
Temperature: 32.2°C (90°F)
Dewpoint: 25.0°C (77°F) [RH = 66%]
Pressure (altimeter): 30.03 inches Hg (1017.0 mb)
[Sea-level pressure: 1016.7 mb]
Winds: from the WSW (240 degrees) at 7 MPH (6 knots; 3.1 m/s)
Visibility: 10 or more miles (16+ km)
Ceiling: 25000 feet AGL
Clouds: scattered clouds at 3000 feet AGL
broken clouds at 25000 feet AGL
Present Weather: no significant weather observed at this time
KTPA 271653Z 24006KT 10SM SCT030 BKN250 32/25 A3003 RMK AO2 SLP167 T03220250

Conditions at: KTPA observed 27 July 2017  15:53 UTC
Temperature: 31.1°C (88°F)
Dewpoint: 25.0°C (77°F) [RH = 70%]
Pressure (altimeter): 30.04 inches Hg (1017.4 mb)
[Sea-level pressure: 1017.2 mb]
Winds: from the SW (230 degrees) at 7 MPH (6 knots; 3.1 m/s)
Visibility: 10 or more miles (16+ km)
Ceiling: 25000 feet AGL
Clouds: scattered clouds at 2500 feet AGL
broken clouds at 25000 feet AGL
Present Weather: no significant weather observed at this time
KTPA 271553Z 23006KT 10SM SCT025 BKN250 31/25 A3004 RMK AO2 SLP172 CB DSNT SW T03110250

Conditions at: KTPA observed 27 July 2017  14:53 UTC
Temperature: 30.0°C (86°F)
Dewpoint: 25.0°C (77°F) [RH = 75%]
Pressure (altimeter): 30.05 inches Hg (1017.7 mb)
[Sea-level pressure: 1017.3 mb]
Winds: from the S (180 degrees) at 3 MPH (3 knots; 1.6 m/s)
Visibility: 10 or more miles (16+ km)
Ceiling: 25000 feet AGL
Clouds: scattered clouds at 1800 feet AGL
scattered clouds at 3500 feet AGL
broken clouds at 25000 feet AGL
Present Weather: no significant weather observed at this time
KTPA 271453Z 18003KT 10SM SCT018 SCT035TCU BKN250 30/25 A3005 RMK AO2 SLP173 TCU NE AND DSNT SW AND NW T03000250 51003

Conditions at: KTPA observed 27 July 2017  13:53 UTC
Temperature: 30.0°C (86°F)
Dewpoint: 25.6°C (78°F) [RH = 77%]
Pressure (altimeter): 30.04 inches Hg (1017.4 mb)
[Sea-level pressure: 1017.3 mb]
Winds: from the S (190 degrees) at 7 MPH (6 knots; 3.1 m/s)
Visibility: 10 or more miles (16+ km)
Ceiling: 25000 feet AGL
Clouds: few clouds at 1700 feet AGL
scattered clouds at 3500 feet AGL
broken clouds at 25000 feet AGL
Present Weather: no significant weather observed at this time
KTPA 271353Z 19006KT 10SM FEW017 SCT035 BKN250 30/26 A3004 RMK AO2 SLP173 T03000256

Conditions at: KTPA observed 27 July 2017  12:53 UTC
Temperature: 28.9°C (84°F)
Dewpoint: 25.0°C (77°F) [RH = 80%]
Pressure (altimeter): 30.05 inches Hg (1017.7 mb)
[Sea-level pressure: 1017.5 mb]
Winds: from the SE (140 degrees) at 6 MPH (5 knots; 2.6 m/s)
Visibility: 10 or more miles (16+ km)
Ceiling: 25000 feet AGL
Clouds: scattered clouds at 2000 feet AGL
broken clouds at 25000 feet AGL
Present Weather: no significant weather observed at this time
KTPA 271253Z 14005KT 10SM SCT020 BKN250 29/25 A3005 RMK AO2 LTG DSNT S AND SW SLP175 CB DSNT S-W T02890250

Conditions at: KTPA observed 27 July 2017  11:53 UTC
Temperature: 28.9°C (84°F)
Dewpoint: 24.4°C (76°F) [RH = 77%]
Pressure (altimeter): 30.04 inches Hg (1017.4 mb)
[Sea-level pressure: 1017.1 mb]
Winds: calm
Visibility: 8 miles (13 km)
Ceiling: 25000 feet AGL
Clouds: few clouds at 1500 feet AGL
few clouds at 5000 feet AGL
broken clouds at 25000 feet AGL
Present Weather: no significant weather observed at this time
KTPA 271153Z 00000KT 8SM FEW015 FEW050 BKN250 29/24 A3004 RMK AO2 LTG DSNT S AND SW SLP171 CB DSNT S T02890244 10289 20278 53006

Conditions at: KTPA observed 27 July 2017  10:53 UTC
Temperature: 28.3°C (83°F)
Dewpoint: 24.4°C (76°F) [RH = 79%]
Pressure (altimeter): 30.02 inches Hg (1016.7 mb)
[Sea-level pressure: 1016.6 mb]
Winds: calm
Visibility: 9 miles (14 km)
Ceiling: 6500 feet AGL
Clouds: scattered clouds at 2000 feet AGL
broken clouds at 6500 feet AGL
broken clouds at 25000 feet AGL
Present Weather: no significant weather observed at this time
KTPA 271053Z 00000KT 9SM SCT020 BKN065 BKN250 28/24 A3002 RMK AO2 SLP166 CB DSNT S T02830244

Conditions at: KTPA observed 27 July 2017  09:53 UTC
Temperature: 27.8°C (82°F)
Dewpoint: 24.4°C (76°F) [RH = 82%]
Pressure (altimeter): 30.02 inches Hg (1016.7 mb)
[Sea-level pressure: 1016.6 mb]
Winds: variable direction winds at 3 MPH (3 knots; 1.6 m/s)
Visibility: 10 or more miles (16+ km)
Ceiling: at least 12,000 feet AGL
Clouds: few clouds at 2000 feet AGL
scattered clouds at 25000 feet AGL
Present Weather: no significant weather observed at this time
KTPA 270953Z VRB03KT 10SM FEW020 SCT250 28/24 A3002 RMK AO2 SLP166 T02780244

Conditions at: KTPA observed 27 July 2017  08:53 UTC
Temperature: 28.3°C (83°F)
Dewpoint: 24.4°C (76°F) [RH = 79%]
Pressure (altimeter): 30.02 inches Hg (1016.7 mb)
[Sea-level pressure: 1016.5 mb]
Winds: from the SE (140 degrees) at 3 MPH (3 knots; 1.6 m/s)
Visibility: 10 or more miles (16+ km)
Ceiling: at least 12,000 feet AGL
Clouds: few clouds at 2000 feet AGL
few clouds at 2500 feet AGL
scattered clouds at 25000 feet AGL
Present Weather: no significant weather observed at this time
KTPA 270853Z 14003KT 10SM FEW020 FEW025 SCT250 28/24 A3002 RMK AO2 SLP165 T02830244 55005

Conditions at: KTPA observed 27 July 2017  07:53 UTC
Temperature: 28.9°C (84°F)
Dewpoint: 24.4°C (76°F) [RH = 77%]
Pressure (altimeter): 30.02 inches Hg (1016.7 mb)
[Sea-level pressure: 1016.3 mb]
Winds: calm
Visibility: 10 or more miles (16+ km)
Ceiling: at least 12,000 feet AGL
Clouds: few clouds at 2400 feet AGL
scattered clouds at 25000 feet AGL
Present Weather: no significant weather observed at this time
KTPA 270753Z 00000KT 10SM FEW024 SCT250 29/24 A3002 RMK AO2 SLP163 T02890244

Conditions at: KTPA observed 27 July 2017  06:53 UTC
Temperature: 28.3°C (83°F)
Dewpoint: 24.4°C (76°F) [RH = 79%]
Pressure (altimeter): 30.02 inches Hg (1016.7 mb)
[Sea-level pressure: 1016.3 mb]
Winds: calm
Visibility: 10 or more miles (16+ km)
Ceiling: at least 12,000 feet AGL
Clouds: few clouds at 6500 feet AGL
scattered clouds at 25000 feet AGL
Present Weather: no significant weather observed at this time
KTPA 270653Z 00000KT 10SM FEW065 SCT250 28/24 A3002 RMK AO2 SLP163 T02830244

Conditions at: KTPA observed 27 July 2017  05:53 UTC
Temperature: 28.9°C (84°F)
Dewpoint: 23.9°C (75°F) [RH = 74%]
Pressure (altimeter): 30.04 inches Hg (1017.4 mb)
[Sea-level pressure: 1017.0 mb]
Winds: from the ESE (120 degrees) at 3 MPH (3 knots; 1.6 m/s)
Visibility: 10 or more miles (16+ km)
Ceiling: at least 12,000 feet AGL
Clouds: few clouds at 5500 feet AGL
scattered clouds at 25000 feet AGL
Present Weather: no significant weather observed at this time
KTPA 270553Z 12003KT 10SM FEW055 SCT250 29/24 A3004 RMK AO2 SLP170 T02890239 10322 20283 58006

Conditions at: KTPA observed 27 July 2017  04:53 UTC
Temperature: 28.9°C (84°F)
Dewpoint: 23.9°C (75°F) [RH = 74%]
Pressure (altimeter): 30.05 inches Hg (1017.7 mb)
[Sea-level pressure: 1017.6 mb]
Winds: calm
Visibility: 10 or more miles (16+ km)
Ceiling: 25000 feet AGL
Clouds: scattered clouds at 6500 feet AGL
broken clouds at 25000 feet AGL
Present Weather: no significant weather observed at this time
KTPA 270453Z 00000KT 10SM SCT065 BKN250 29/24 A3005 RMK AO2 SLP176 T02890239 403390261

Conditions at: KTPA observed 27 July 2017  03:53 UTC
Temperature: 28.9°C (84°F)
Dewpoint: 23.9°C (75°F) [RH = 74%]
Pressure (altimeter): 30.05 inches Hg (1017.7 mb)
[Sea-level pressure: 1017.3 mb]
Winds: from the N (10 degrees) at 3 MPH (3 knots; 1.6 m/s)
Visibility: 10 or more miles (16+ km)
Ceiling: 25000 feet AGL
Clouds: few clouds at 6000 feet AGL
scattered clouds at 19000 feet AGL
broken clouds at 25000 feet AGL
Present Weather: no significant weather observed at this time
KTPA 270353Z 01003KT 10SM FEW060 SCT190 BKN250 29/24 A3005 RMK AO2 SLP173 T02890239

Conditions at: KTPA observed 27 July 2017  02:53 UTC
Temperature: 28.9°C (84°F)
Dewpoint: 23.9°C (75°F) [RH = 74%]
Pressure (altimeter): 30.05 inches Hg (1017.7 mb)
[Sea-level pressure: 1017.6 mb]
Winds: from the N (350 degrees) at 5 MPH (4 knots; 2.1 m/s)
Visibility: 10 or more miles (16+ km)
Ceiling: at least 12,000 feet AGL
Clouds: few clouds at 19000 feet AGL
scattered clouds at 25000 feet AGL
Present Weather: no significant weather observed at this time
KTPA 270253Z 35004KT 10SM FEW190 SCT250 29/24 A3005 RMK AO2 SLP176 T02890239 53013

Conditions at: KTPA observed 27 July 2017  01:53 UTC
Temperature: 29.4°C (85°F)
Dewpoint: 23.3°C (74°F) [RH = 70%]
Pressure (altimeter): 30.03 inches Hg (1017.0 mb)
[Sea-level pressure: 1016.9 mb]
Winds: from the NNW (340 degrees) at 7 MPH (6 knots; 3.1 m/s)
Visibility: 10 or more miles (16+ km)
Ceiling: 25000 feet AGL
Clouds: few clouds at 19000 feet AGL
broken clouds at 25000 feet AGL
Present Weather: no significant weather observed at this time
KTPA 270153Z 34006KT 10SM FEW190 BKN250 29/23 A3003 RMK AO2 SLP169 T02940233

Conditions at: KTPA observed 27 July 2017  00:53 UTC
Temperature: 30.0°C (86°F)
Dewpoint: 23.3°C (74°F) [RH = 67%]
Pressure (altimeter): 30.03 inches Hg (1017.0 mb)
[Sea-level pressure: 1016.7 mb]
Winds: from the NW (310 degrees) at 6 MPH (5 knots; 2.6 m/s)
Visibility: 10 or more miles (16+ km)
Ceiling: 25000 feet AGL
Clouds: few clouds at 4000 feet AGL
few clouds at 19000 feet AGL
broken clouds at 25000 feet AGL
Present Weather: no significant weather observed at this time
KTPA 270053Z 31005KT 10SM FEW040 FEW190 BKN250 30/23 A3003 RMK AO2 SLP167 CB DSNT SE T03000233

Conditions at: KTPA observed 26 July 2017  23:53 UTC
Temperature: 31.7°C (89°F)
Dewpoint: 21.7°C (71°F) [RH = 56%]
Pressure (altimeter): 30.02 inches Hg (1016.7 mb)
[Sea-level pressure: 1016.4 mb]
Winds: from the NW (320 degrees) at 8 MPH (7 knots; 3.6 m/s)
Visibility: 10 or more miles (16+ km)
Ceiling: 25000 feet AGL
Clouds: few clouds at 4000 feet AGL
few clouds at 19000 feet AGL
broken clouds at 25000 feet AGL
Present Weather: no significant weather observed at this time
KTPA 262353Z 32007KT 10SM FEW040 FEW190 BKN250 32/22 A3002 RMK AO2 SLP164 CB DSNT SE T03170217 10339 20317 55002

Conditions at: KTPA observed 26 July 2017  22:53 UTC
Temperature: 32.8°C (91°F)
Dewpoint: 22.2°C (72°F) [RH = 54%]
Pressure (altimeter): 30.01 inches Hg (1016.3 mb)
[Sea-level pressure: 1016.1 mb]
Winds: from the W (270 degrees) at 9 MPH (8 knots; 4.2 m/s)
Visibility: 10 or more miles (16+ km)
Ceiling: 25000 feet AGL
Clouds: few clouds at 4000 feet AGL
few clouds at 19000 feet AGL
broken clouds at 25000 feet AGL
Present Weather: no significant weather observed at this time
KTPA 262253Z 27008KT 10SM FEW040 FEW190 BKN250 33/22 A3001 RMK AO2 SLP161 CB DSNT SE T03280222

Conditions at: KTPA observed 26 July 2017  21:53 UTC
Temperature: 32.8°C (91°F)
Dewpoint: 22.8°C (73°F) [RH = 56%]
Pressure (altimeter): 30.01 inches Hg (1016.3 mb)
[Sea-level pressure: 1016.2 mb]
Winds: from the W (270 degrees) at 10 MPH (9 knots; 4.7 m/s)
Visibility: 10 or more miles (16+ km)
Ceiling: 25000 feet AGL
Clouds: few clouds at 4000 feet AGL
few clouds at 19000 feet AGL
broken clouds at 25000 feet AGL
Present Weather: no significant weather observed at this time
KTPA 262153Z 27009KT 10SM FEW040 FEW190 BKN250 33/23 A3001 RMK AO2 SLP162 CB DSNT SE T03280228

Conditions at: KTPA observed 26 July 2017  20:53 UTC
Temperature: 33.3°C (92°F)
Dewpoint: 22.8°C (73°F) [RH = 54%]
Pressure (altimeter): 30.02 inches Hg (1016.7 mb)
[Sea-level pressure: 1016.6 mb]
Winds: from the W (270 degrees) at 10 MPH (9 knots; 4.7 m/s)
Visibility: 10 or more miles (16+ km)
Ceiling: 25000 feet AGL
Clouds: few clouds at 4000 feet AGL
few clouds at 19000 feet AGL
broken clouds at 25000 feet AGL
Present Weather: no significant weather observed at this time
KTPA 262053Z 27009KT 10SM FEW040 FEW190 BKN250 33/23 A3002 RMK AO2 SLP166 T03330228 58022

Conditions at: KTPA observed 26 July 2017  19:53 UTC
Temperature: 33.3°C (92°F)
Dewpoint: 22.8°C (73°F) [RH = 54%]
Pressure (altimeter): 30.04 inches Hg (1017.4 mb)
[Sea-level pressure: 1017.3 mb]
Winds: from the W (270 degrees) at 10 MPH (9 knots; 4.7 m/s)
Visibility: 10 or more miles (16+ km)
Ceiling: 25000 feet AGL
Clouds: few clouds at 3500 feet AGL
few clouds at 19000 feet AGL
broken clouds at 25000 feet AGL
Present Weather: no significant weather observed at this time
KTPA 261953Z 27009KT 10SM FEW035 FEW190 BKN250 33/23 A3004 RMK AO2 SLP173 T03330228

Conditions at: KTPA observed 26 July 2017  18:53 UTC
Temperature: 33.3°C (92°F)
Dewpoint: 23.3°C (74°F) [RH = 56%]
Pressure (altimeter): 30.07 inches Hg (1018.4 mb)
[Sea-level pressure: 1018.2 mb]
Winds: from the WSW (250 degrees) at 12 MPH (10 knots; 5.2 m/s)
Visibility: 10 or more miles (16+ km)
Ceiling: at least 12,000 feet AGL
Clouds: scattered clouds at 4500 feet AGL
scattered clouds at 25000 feet AGL
Present Weather: no significant weather observed at this time
KTPA 261853Z 25010KT 10SM SCT045 SCT250 33/23 A3007 RMK AO2 SLP182 T03330233